sensor_id;sensor_type;location;lat;lon;timestamp;pressure;altitude;pressure_sealevel;temperature;humidity
72086;BME280;64750;52.134;5.424;2023-02-03T00:01:42;102616.34;;;8.23;90.25
72086;BME280;64750;52.134;5.424;2023-02-03T00:04:08;102632.06;;;8.23;89.97
72086;BME280;64750;52.134;5.424;2023-02-03T00:06:35;102631.22;;;8.22;90.13
72086;BME280;64750;52.134;5.424;2023-02-03T00:09:01;102636.44;;;8.22;90.06
72086;BME280;64750;52.134;5.424;2023-02-03T00:11:29;102639.03;;;8.24;90.12
72086;BME280;64750;52.134;5.424;2023-02-03T00:13:55;102637.25;;;8.26;90.06
72086;BME280;64750;52.134;5.424;2023-02-03T00:16:22;102640.75;;;8.25;89.92
72086;BME280;64750;52.134;5.424;2023-02-03T00:18:48;102642.47;;;8.26;89.78
72086;BME280;64750;52.134;5.424;2023-02-03T00:21:15;102646.00;;;8.25;89.90
72086;BME280;64750;52.134;5.424;2023-02-03T00:23:41;102638.97;;;8.25;89.55
72086;BME280;64750;52.134;5.424;2023-02-03T00:26:10;102646.00;;;8.25;89.60
72086;BME280;64750;52.134;5.424;2023-02-03T00:28:37;102637.25;;;8.26;89.51
72086;BME280;64750;52.134;5.424;2023-02-03T00:31:03;102644.19;;;8.28;89.25
72086;BME280;64750;52.134;5.424;2023-02-03T00:33:30;102642.41;;;8.29;89.08
72086;BME280;64750;52.134;5.424;2023-02-03T00:36:04;102647.59;;;8.30;88.95
72086;BME280;64750;52.134;5.424;2023-02-03T00:38:30;102652.84;;;8.30;89.05
72086;BME280;64750;52.134;5.424;2023-02-03T00:40:57;102654.63;;;8.30;88.82
72086;BME280;64750;52.134;5.424;2023-02-03T00:43:23;102639.72;;;8.32;88.74
72086;BME280;64750;52.134;5.424;2023-02-03T00:45:49;102648.44;;;8.32;88.66
72086;BME280;64750;52.134;5.424;2023-02-03T00:48:16;102651.88;;;8.34;88.30
72086;BME280;64750;52.134;5.424;2023-02-03T00:50:45;102643.22;;;8.32;88.31
72086;BME280;64750;52.134;5.424;2023-02-03T00:53:12;102658.09;;;8.30;88.48
72086;BME280;64750;52.134;5.424;2023-02-03T00:55:38;102656.34;;;8.31;88.42
72086;BME280;64750;52.134;5.424;2023-02-03T00:58:05;102637.97;;;8.32;88.17
72086;BME280;64750;52.134;5.424;2023-02-03T01:00:31;102644.06;;;8.33;88.19
72086;BME280;64750;52.134;5.424;2023-02-03T01:02:57;102639.72;;;8.32;88.22
72086;BME280;64750;52.134;5.424;2023-02-03T01:05:24;102627.53;;;8.31;88.10
72086;BME280;64750;52.134;5.424;2023-02-03T01:07:50;102635.38;;;8.31;88.02
72086;BME280;64750;52.134;5.424;2023-02-03T01:10:17;102624.03;;;8.30;88.03
72086;BME280;64750;52.134;5.424;2023-02-03T01:12:45;102623.19;;;8.30;88.18
72086;BME280;64750;52.134;5.424;2023-02-03T01:15:11;102626.69;;;8.29;88.12
72086;BME280;64750;52.134;5.424;2023-02-03T01:17:37;102627.53;;;8.31;88.20
72086;BME280;64750;52.134;5.424;2023-02-03T01:20:04;102642.31;;;8.32;88.22
72086;BME280;64750;52.134;5.424;2023-02-03T01:22:31;102635.38;;;8.31;87.73
72086;BME280;64750;52.134;5.424;2023-02-03T01:24:57;102631.88;;;8.30;87.80
72086;BME280;64750;52.134;5.424;2023-02-03T01:27:23;102637.09;;;8.32;87.45
72086;BME280;64750;52.134;5.424;2023-02-03T01:29:50;102609.16;;;8.32;87.37
72086;BME280;64750;52.134;5.424;2023-02-03T01:32:16;102609.19;;;8.31;87.51
72086;BME280;64750;52.134;5.424;2023-02-03T01:34:43;102589.09;;;8.31;87.66
72086;BME280;64750;52.134;5.424;2023-02-03T01:37:09;102593.47;;;8.31;87.17
72086;BME280;64750;52.134;5.424;2023-02-03T01:39:35;102588.22;;;8.31;87.13
72086;BME280;64750;52.134;5.424;2023-02-03T01:42:02;102585.63;;;8.31;87.32
72086;BME280;64750;52.134;5.424;2023-02-03T01:49:54;102594.41;;;8.28;87.59
72086;BME280;64750;52.134;5.424;2023-02-03T01:52:21;102600.50;;;8.29;87.21
72086;BME280;64750;52.134;5.424;2023-02-03T01:54:49;102604.88;;;8.28;87.47
72086;BME280;64750;52.134;5.424;2023-02-03T01:57:33;102597.03;;;8.28;87.20
72086;BME280;64750;52.134;5.424;2023-02-03T02:00:03;102581.31;;;8.28;87.26
72086;BME280;64750;52.134;5.424;2023-02-03T02:02:31;102570.78;;;8.30;86.83
72086;BME280;64750;52.134;5.424;2023-02-03T02:05:09;102562.94;;;8.30;87.11
72086;BME280;64750;52.134;5.424;2023-02-03T02:07:38;102564.66;;;8.31;86.79
72086;BME280;64750;52.134;5.424;2023-02-03T02:10:06;102555.88;;;8.32;86.19
72086;BME280;64750;52.134;5.424;2023-02-03T02:12:33;102558.50;;;8.32;86.31
72086;BME280;64750;52.134;5.424;2023-02-03T02:15:00;102573.31;;;8.33;86.37
72086;BME280;64750;52.134;5.424;2023-02-03T02:20:32;102579.44;;;8.33;85.97
72086;BME280;64750;52.134;5.424;2023-02-03T02:28:37;102593.34;;;8.35;86.30
72086;BME280;64750;52.134;5.424;2023-02-03T02:37:18;102570.69;;;8.33;85.97
72086;BME280;64750;52.134;5.424;2023-02-03T02:40:14;102578.53;;;8.34;85.76
72086;BME280;64750;52.134;5.424;2023-02-03T02:43:12;102573.31;;;8.33;85.96
72086;BME280;64750;52.134;5.424;2023-02-03T02:45:55;102572.47;;;8.32;86.11
72086;BME280;64750;52.134;5.424;2023-02-03T02:51:15;102567.19;;;8.34;85.97
72086;BME280;64750;52.134;5.424;2023-02-03T02:53:49;102549.75;;;8.33;85.85
72086;BME280;64750;52.134;5.424;2023-02-03T02:56:17;102554.97;;;8.33;85.87
72086;BME280;64750;52.134;5.424;2023-02-03T02:58:46;102554.94;;;8.36;85.28
72086;BME280;64750;52.134;5.424;2023-02-03T03:01:15;102563.63;;;8.36;85.45
72086;BME280;64750;52.134;5.424;2023-02-03T03:03:42;102549.69;;;8.36;85.35
72086;BME280;64750;52.134;5.424;2023-02-03T03:06:16;102538.31;;;8.35;85.20
72086;BME280;64750;52.134;5.424;2023-02-03T03:11:16;102535.69;;;8.37;85.24
72086;BME280;64750;52.134;5.424;2023-02-03T03:13:48;102543.47;;;8.40;84.97
72086;BME280;64750;52.134;5.424;2023-02-03T03:16:17;102545.16;;;8.43;84.86
72086;BME280;64750;52.134;5.424;2023-02-03T03:18:49;102539.03;;;8.44;84.83
72086;BME280;64750;52.134;5.424;2023-02-03T03:21:24;102550.34;;;8.46;84.47
72086;BME280;64750;52.134;5.424;2023-02-03T03:23:53;102538.97;;;8.45;84.26
72086;BME280;64750;52.134;5.424;2023-02-03T03:26:27;102528.50;;;8.45;84.46
72086;BME280;64750;52.134;5.424;2023-02-03T03:29:09;102543.38;;;8.46;84.48
72086;BME280;64750;52.134;5.424;2023-02-03T03:31:37;102534.56;;;8.49;84.14
72086;BME280;64750;52.134;5.424;2023-02-03T03:34:07;102546.78;;;8.48;84.19
72086;BME280;64750;52.134;5.424;2023-02-03T03:36:42;102546.78;;;8.48;84.51
72086;BME280;64750;52.134;5.424;2023-02-03T03:39:34;102559.03;;;8.48;84.26
72086;BME280;64750;52.134;5.424;2023-02-03T03:42:26;102559.91;;;8.48;84.51
72086;BME280;64750;52.134;5.424;2023-02-03T03:45:02;102549.41;;;8.48;84.17
72086;BME280;64750;52.134;5.424;2023-02-03T03:50:28;102567.69;;;8.51;84.08
72086;BME280;64750;52.134;5.424;2023-02-03T03:52:57;102567.69;;;8.51;84.61
72086;BME280;64750;52.134;5.424;2023-02-03T03:55:26;102586.91;;;8.52;84.19
72086;BME280;64750;52.134;5.424;2023-02-03T03:58:07;102575.56;;;8.51;84.21
72086;BME280;64750;52.134;5.424;2023-02-03T04:00:37;102600.88;;;8.52;84.32
72086;BME280;64750;52.134;5.424;2023-02-03T04:03:10;102577.28;;;8.52;84.28
72086;BME280;64750;52.134;5.424;2023-02-03T04:05:39;102579.88;;;8.54;84.16
72086;BME280;64750;52.134;5.424;2023-02-03T04:08:06;102571.13;;;8.53;84.21
72086;BME280;64750;52.134;5.424;2023-02-03T04:10:37;102570.25;;;8.54;84.02
72086;BME280;64750;52.134;5.424;2023-02-03T04:13:05;102577.22;;;8.56;84.31
72086;BME280;64750;52.134;5.424;2023-02-03T04:15:32;102559.69;;;8.58;83.51
72086;BME280;64750;52.134;5.424;2023-02-03T04:17:59;102571.81;;;8.62;83.49
72086;BME280;64750;52.134;5.424;2023-02-03T04:20:30;102576.19;;;8.61;83.75
72086;BME280;64750;52.134;5.424;2023-02-03T04:22:57;102564.00;;;8.59;83.93
72086;BME280;64750;52.134;5.424;2023-02-03T04:25:24;102573.56;;;8.63;83.01
72086;BME280;64750;52.134;5.424;2023-02-03T04:27:51;102569.94;;;8.67;82.96
72086;BME280;64750;52.134;5.424;2023-02-03T04:30:17;102569.94;;;8.67;83.31
72086;BME280;64750;52.134;5.424;2023-02-03T04:32:44;102565.56;;;8.67;83.13
72086;BME280;64750;52.134;5.424;2023-02-03T04:35:11;102556.81;;;8.68;83.11
72086;BME280;64750;52.134;5.424;2023-02-03T04:37:37;102578.53;;;8.74;82.70
72086;BME280;64750;52.134;5.424;2023-02-03T04:40:04;102559.31;;;8.73;82.66
72086;BME280;64750;52.134;5.424;2023-02-03T04:42:31;102562.69;;;8.77;82.54
72086;BME280;64750;52.134;5.424;2023-02-03T04:44:57;102567.94;;;8.78;82.30
72086;BME280;64750;52.134;5.424;2023-02-03T04:47:24;102570.47;;;8.81;82.55
72086;BME280;64750;52.134;5.424;2023-02-03T04:49:50;102570.47;;;8.81;82.00
72086;BME280;64750;52.134;5.424;2023-02-03T04:52:17;102557.28;;;8.84;81.83
72086;BME280;64750;52.134;5.424;2023-02-03T04:54:43;102560.72;;;8.86;81.87
72086;BME280;64750;52.134;5.424;2023-02-03T04:57:09;102558.16;;;8.85;82.07
72086;BME280;64750;52.134;5.424;2023-02-03T04:59:36;102559.91;;;8.84;82.30
72086;BME280;64750;52.134;5.424;2023-02-03T05:02:03;102547.69;;;8.83;82.21
72086;BME280;64750;52.134;5.424;2023-02-03T05:04:30;102567.78;;;8.83;82.12
72086;BME280;64750;52.134;5.424;2023-02-03T05:06:57;102538.03;;;8.85;81.90
72086;BME280;64750;52.134;5.424;2023-02-03T05:09:24;102554.69;;;8.84;82.23
72086;BME280;64750;52.134;5.424;2023-02-03T05:11:51;102544.19;;;8.84;82.46
72086;BME280;64750;52.134;5.424;2023-02-03T05:14:17;102562.53;;;8.84;82.35
72086;BME280;64750;52.134;5.424;2023-02-03T05:16:44;102562.53;;;8.84;82.20
72086;BME280;64750;52.134;5.424;2023-02-03T05:19:12;102562.53;;;8.84;82.26
72086;BME280;64750;52.134;5.424;2023-02-03T05:21:38;102567.78;;;8.84;82.29
72086;BME280;64750;52.134;5.424;2023-02-03T05:24:05;102569.41;;;8.89;82.49
72086;BME280;64750;52.134;5.424;2023-02-03T05:26:33;102568.53;;;8.88;82.30
72086;BME280;64750;52.134;5.424;2023-02-03T05:29:00;102547.63;;;8.86;82.53
72086;BME280;64750;52.134;5.424;2023-02-03T05:31:26;102559.81;;;8.88;82.41
72086;BME280;64750;52.134;5.424;2023-02-03T05:33:54;102565.03;;;8.89;82.06
72086;BME280;64750;52.134;5.424;2023-02-03T05:36:20;102566.81;;;8.89;82.04
72086;BME280;64750;52.134;5.424;2023-02-03T05:38:47;102565.97;;;8.86;82.60
72086;BME280;64750;52.134;5.424;2023-02-03T05:41:13;102561.59;;;8.87;82.14
72086;BME280;64750;52.134;5.424;2023-02-03T05:43:58;102558.03;;;8.90;82.31
72086;BME280;64750;52.134;5.424;2023-02-03T05:46:25;102577.28;;;8.89;81.99
72086;BME280;64750;52.134;5.424;2023-02-03T05:48:51;102573.84;;;8.86;82.39
72086;BME280;64750;52.134;5.424;2023-02-03T05:51:17;102561.63;;;8.85;82.71
72086;BME280;64750;52.134;5.424;2023-02-03T05:53:44;102568.69;;;8.83;82.75
72086;BME280;64750;52.134;5.424;2023-02-03T05:56:10;102584.41;;;8.83;82.77
72086;BME280;64750;52.134;5.424;2023-02-03T05:58:37;102572.09;;;8.85;82.68
72086;BME280;64750;52.134;5.424;2023-02-03T06:01:03;102551.13;;;8.85;82.53
72086;BME280;64750;52.134;5.424;2023-02-03T06:03:29;102549.44;;;8.84;82.89
72086;BME280;64750;52.134;5.424;2023-02-03T06:05:56;102552.94;;;8.83;82.99
72086;BME280;64750;52.134;5.424;2023-02-03T06:08:24;102552.94;;;8.83;82.68
72086;BME280;64750;52.134;5.424;2023-02-03T06:10:57;102565.16;;;8.84;82.50
72086;BME280;64750;52.134;5.424;2023-02-03T06:13:25;102559.09;;;8.82;82.36
72086;BME280;64750;52.134;5.424;2023-02-03T06:15:51;102554.63;;;8.86;82.40
72086;BME280;64750;52.134;5.424;2023-02-03T06:18:18;102559.91;;;8.84;82.41
72086;BME280;64750;52.134;5.424;2023-02-03T06:20:44;102560.78;;;8.85;82.66
72086;BME280;64750;52.134;5.424;2023-02-03T06:23:11;102559.91;;;8.84;82.47
72086;BME280;64750;52.134;5.424;2023-02-03T06:25:37;102562.53;;;8.84;82.84
72086;BME280;64750;52.134;5.424;2023-02-03T06:28:03;102578.28;;;8.84;82.50
72086;BME280;64750;52.134;5.424;2023-02-03T06:30:30;102583.50;;;8.84;82.75
72086;BME280;64750;52.134;5.424;2023-02-03T06:32:57;102571.31;;;8.83;82.81
72086;BME280;64750;52.134;5.424;2023-02-03T06:35:23;102574.81;;;8.82;82.74
72086;BME280;64750;52.134;5.424;2023-02-03T06:37:49;102567.78;;;8.83;82.78
72086;BME280;64750;52.134;5.424;2023-02-03T06:40:16;102574.81;;;8.82;82.73
72086;BME280;64750;52.134;5.424;2023-02-03T06:42:46;102564.25;;;8.85;82.73
72086;BME280;64750;52.134;5.424;2023-02-03T06:45:13;102562.53;;;8.84;82.66
72086;BME280;64750;52.134;5.424;2023-02-03T06:47:41;102573.03;;;8.83;82.73
72086;BME280;64750;52.134;5.424;2023-02-03T06:50:09;102570.41;;;8.84;82.93
72086;BME280;64750;52.134;5.424;2023-02-03T06:52:36;102582.63;;;8.84;82.87
72086;BME280;64750;52.134;5.424;2023-02-03T06:55:03;102586.16;;;8.83;83.05
72086;BME280;64750;52.134;5.424;2023-02-03T06:57:30;102584.41;;;8.83;82.78
72086;BME280;64750;52.134;5.424;2023-02-03T06:59:57;102598.41;;;8.82;82.86
72086;BME280;64750;52.134;5.424;2023-02-03T07:02:24;102601.03;;;8.82;82.97
72086;BME280;64750;52.134;5.424;2023-02-03T07:04:50;102614.16;;;8.82;83.05
72086;BME280;64750;52.134;5.424;2023-02-03T07:07:17;102611.53;;;8.82;82.99
72086;BME280;64750;52.134;5.424;2023-02-03T07:09:43;102623.78;;;8.80;82.96
72086;BME280;64750;52.134;5.424;2023-02-03T07:12:09;102625.53;;;8.81;83.26
72086;BME280;64750;52.134;5.424;2023-02-03T07:14:36;102617.66;;;8.81;83.19
72086;BME280;64750;52.134;5.424;2023-02-03T07:17:04;102621.16;;;8.82;83.34
72086;BME280;64750;52.134;5.424;2023-02-03T07:19:32;102620.28;;;8.81;83.07
72086;BME280;64750;52.134;5.424;2023-02-03T07:21:58;102630.78;;;8.81;83.19
72086;BME280;64750;52.134;5.424;2023-02-03T07:24:24;102610.69;;;8.80;83.31
72086;BME280;64750;52.134;5.424;2023-02-03T07:26:51;102629.03;;;8.80;83.33
72086;BME280;64750;52.134;5.424;2023-02-03T07:29:18;102615.03;;;8.81;83.44
72086;BME280;64750;52.134;5.424;2023-02-03T07:31:44;102626.41;;;8.80;83.29
72086;BME280;64750;52.134;5.424;2023-02-03T07:34:10;102623.84;;;8.79;83.42
72086;BME280;64750;52.134;5.424;2023-02-03T07:36:37;102623.78;;;8.80;83.33
72086;BME280;64750;52.134;5.424;2023-02-03T07:39:03;102632.53;;;8.81;83.82
72086;BME280;64750;52.134;5.424;2023-02-03T07:41:30;102628.16;;;8.81;83.21
72086;BME280;64750;52.134;5.424;2023-02-03T07:43:56;102619.44;;;8.81;83.29
72086;BME280;64750;52.134;5.424;2023-02-03T07:46:23;102604.56;;;8.81;83.43
72086;BME280;64750;52.134;5.424;2023-02-03T07:48:49;102623.78;;;8.80;83.46
72086;BME280;64750;52.134;5.424;2023-02-03T07:51:16;102628.19;;;8.80;83.60
72086;BME280;64750;52.134;5.424;2023-02-03T07:53:42;102623.78;;;8.80;83.71
72086;BME280;64750;52.134;5.424;2023-02-03T07:56:09;102642.13;;;8.82;83.92
72086;BME280;64750;52.134;5.424;2023-02-03T07:58:37;102645.66;;;8.81;84.06
72086;BME280;64750;52.134;5.424;2023-02-03T08:01:12;102629.91;;;8.81;84.05
72086;BME280;64750;52.134;5.424;2023-02-03T08:03:39;102634.28;;;8.80;83.83
72086;BME280;64750;52.134;5.424;2023-02-03T08:06:06;102643.91;;;8.80;84.22
72086;BME280;64750;52.134;5.424;2023-02-03T08:08:34;102647.38;;;8.80;84.06
72086;BME280;64750;52.134;5.424;2023-02-03T08:11:01;102646.50;;;8.81;83.97
72086;BME280;64750;52.134;5.424;2023-02-03T08:13:27;102649.09;;;8.83;84.17
72086;BME280;64750;52.134;5.424;2023-02-03T08:15:53;102654.31;;;8.83;84.33
72086;BME280;64750;52.134;5.424;2023-02-03T08:18:20;102665.69;;;8.83;84.36
72086;BME280;64750;52.134;5.424;2023-02-03T08:20:47;102675.28;;;8.84;84.28
72086;BME280;64750;52.134;5.424;2023-02-03T08:23:14;102667.38;;;8.86;84.06
72086;BME280;64750;52.134;5.424;2023-02-03T08:25:40;102670.84;;;8.86;84.30
72086;BME280;64750;52.134;5.424;2023-02-03T08:28:07;102662.09;;;8.88;84.22
72086;BME280;64750;52.134;5.424;2023-02-03T08:30:33;102679.56;;;8.89;84.41
72086;BME280;64750;52.134;5.424;2023-02-03T08:32:59;102681.28;;;8.90;84.14
72086;BME280;64750;52.134;5.424;2023-02-03T08:35:26;102685.59;;;8.92;84.40
72086;BME280;64750;52.134;5.424;2023-02-03T08:37:52;102691.78;;;8.90;84.17
72086;BME280;64750;52.134;5.424;2023-02-03T08:40:19;102678.66;;;8.90;84.53
72086;BME280;64750;52.134;5.424;2023-02-03T08:42:45;102665.56;;;8.90;84.67
72086;BME280;64750;52.134;5.424;2023-02-03T08:45:12;102677.75;;;8.91;84.57
72086;BME280;64750;52.134;5.424;2023-02-03T08:47:38;102688.19;;;8.94;84.58
72086;BME280;64750;52.134;5.424;2023-02-03T08:50:06;102694.22;;;8.96;84.25
72086;BME280;64750;52.134;5.424;2023-02-03T08:52:33;102685.50;;;8.95;84.46
72086;BME280;64750;52.134;5.424;2023-02-03T08:55:00;102687.25;;;8.96;84.75
72086;BME280;64750;52.134;5.424;2023-02-03T08:57:31;102693.34;;;8.97;84.60
72086;BME280;64750;52.134;5.424;2023-02-03T08:59:57;102693.28;;;8.98;84.70
72086;BME280;64750;52.134;5.424;2023-02-03T09:02:23;102695.06;;;8.98;84.65
72086;BME280;64750;52.134;5.424;2023-02-03T09:04:50;102693.28;;;9.00;84.80
72086;BME280;64750;52.134;5.424;2023-02-03T09:07:17;102697.59;;;9.01;84.51
72086;BME280;64750;52.134;5.424;2023-02-03T09:09:43;102700.22;;;9.01;84.50
72086;BME280;64750;52.134;5.424;2023-02-03T09:12:10;102708.94;;;9.03;84.81
72086;BME280;64750;52.134;5.424;2023-02-03T09:14:38;102714.19;;;9.03;84.81
72086;BME280;64750;52.134;5.424;2023-02-03T09:17:05;102716.75;;;9.05;84.93
72086;BME280;64750;52.134;5.424;2023-02-03T09:19:33;102707.16;;;9.05;84.52
72086;BME280;64750;52.134;5.424;2023-02-03T09:22:01;102707.09;;;9.07;84.52
72086;BME280;64750;52.134;5.424;2023-02-03T09:24:28;102712.41;;;9.05;84.89
72086;BME280;64750;52.134;5.424;2023-02-03T09:26:54;102707.06;;;9.08;84.89
72086;BME280;64750;52.134;5.424;2023-02-03T09:29:21;102707.91;;;9.09;84.57
72086;BME280;64750;52.134;5.424;2023-02-03T09:31:49;102705.28;;;9.10;84.32
72086;BME280;64750;52.134;5.424;2023-02-03T09:34:19;102692.16;;;9.10;84.72
72086;BME280;64750;52.134;5.424;2023-02-03T09:36:46;102721.81;;;9.12;84.41
72086;BME280;64750;52.134;5.424;2023-02-03T09:39:12;102720.09;;;9.13;84.27
72086;BME280;64750;52.134;5.424;2023-02-03T09:44:43;102706.03;;;9.14;84.71
72086;BME280;64750;52.134;5.424;2023-02-03T09:47:16;102716.53;;;9.15;84.39
72086;BME280;64750;52.134;5.424;2023-02-03T09:49:57;102729.63;;;9.15;84.51
72086;BME280;64750;52.134;5.424;2023-02-03T09:52:27;102740.94;;;9.17;84.51
72086;BME280;64750;52.134;5.424;2023-02-03T09:55:02;102727.81;;;9.17;84.67
72086;BME280;64750;52.134;5.424;2023-02-03T09:57:34;102733.91;;;9.19;84.57
72086;BME280;64750;52.134;5.424;2023-02-03T10:00:13;102731.28;;;9.19;84.61
72086;BME280;64750;52.134;5.424;2023-02-03T10:14:26;102738.13;;;9.27;84.18
72086;BME280;64750;52.134;5.424;2023-02-03T10:17:21;102745.94;;;9.28;84.29
72086;BME280;64750;52.134;5.424;2023-02-03T10:20:05;102748.53;;;9.30;84.14
72086;BME280;64750;52.134;5.424;2023-02-03T10:22:43;102746.75;;;9.32;84.27
72086;BME280;64750;52.134;5.424;2023-02-03T10:27:41;102755.47;;;9.32;83.81
72086;BME280;64750;52.134;5.424;2023-02-03T10:30:18;102762.41;;;9.35;83.79
72086;BME280;64750;52.134;5.424;2023-02-03T10:32:48;102755.38;;;9.37;83.95
72086;BME280;64750;52.134;5.424;2023-02-03T10:35:16;102760.63;;;9.37;83.83
72086;BME280;64750;52.134;5.424;2023-02-03T10:37:49;102766.75;;;9.36;84.16
72086;BME280;64750;52.134;5.424;2023-02-03T10:40:19;102767.56;;;9.38;83.96
72086;BME280;64750;52.134;5.424;2023-02-03T10:42:48;102784.16;;;9.40;84.04
72086;BME280;64750;52.134;5.424;2023-02-03T10:45:36;102772.78;;;9.40;84.11
72086;BME280;64750;52.134;5.424;2023-02-03T10:48:06;102774.50;;;9.41;84.02
72086;BME280;64750;52.134;5.424;2023-02-03T10:50:41;102773.59;;;9.42;83.85
72086;BME280;64750;52.134;5.424;2023-02-03T10:53:33;102777.06;;;9.44;83.75
72086;BME280;64750;52.134;5.424;2023-02-03T10:58:30;102783.13;;;9.46;83.83
72086;BME280;64750;52.134;5.424;2023-02-03T11:01:09;102777.88;;;9.47;83.90
72086;BME280;64750;52.134;5.424;2023-02-03T11:03:37;102765.59;;;9.48;83.79
72086;BME280;64750;52.134;5.424;2023-02-03T11:06:13;102776.91;;;9.50;83.63
72086;BME280;64750;52.134;5.424;2023-02-03T11:08:43;102783.88;;;9.51;83.65
72086;BME280;64750;52.134;5.424;2023-02-03T11:11:27;102787.38;;;9.51;83.83
72086;BME280;64750;52.134;5.424;2023-02-03T11:16:33;102794.38;;;9.51;83.70
72086;BME280;64750;52.134;5.424;2023-02-03T11:21:33;102798.78;;;9.50;83.60
72086;BME280;64750;52.134;5.424;2023-02-03T11:24:13;102797.91;;;9.50;83.73
72086;BME280;64750;52.134;5.424;2023-02-03T11:26:47;102787.44;;;9.48;83.75
72086;BME280;64750;52.134;5.424;2023-02-03T11:29:29;102784.78;;;9.50;83.71
72086;BME280;64750;52.134;5.424;2023-02-03T11:31:58;102794.41;;;9.49;83.71
72086;BME280;64750;52.134;5.424;2023-02-03T11:34:29;102776.03;;;9.49;83.92
72086;BME280;64750;52.134;5.424;2023-02-03T11:36:56;102786.53;;;9.49;83.97
72086;BME280;64750;52.134;5.424;2023-02-03T11:39:30;102804.88;;;9.51;83.87
72086;BME280;64750;52.134;5.424;2023-02-03T11:42:01;102789.91;;;9.55;83.60
72086;BME280;64750;52.134;5.424;2023-02-03T11:44:29;102791.59;;;9.57;83.64
72086;BME280;64750;52.134;5.424;2023-02-03T11:47:08;102786.41;;;9.56;83.77
72086;BME280;64750;52.134;5.424;2023-02-03T12:03:36;102782.84;;;9.58;83.97
72086;BME280;64750;52.134;5.424;2023-02-03T12:08:58;102786.31;;;9.59;84.22
72086;BME280;64750;52.134;5.424;2023-02-03T12:33:46;102819.19;;;9.38;86.37
72086;BME280;64750;52.134;5.424;2023-02-03T12:36:19;102821.91;;;9.34;86.56
72086;BME280;64750;52.134;5.424;2023-02-03T12:38:56;102830.72;;;9.30;86.75
72086;BME280;64750;52.134;5.424;2023-02-03T12:41:28;102829.91;;;9.28;87.29
72086;BME280;64750;52.134;5.424;2023-02-03T12:44:00;102839.63;;;9.25;87.32
72086;BME280;64750;52.134;5.424;2023-02-03T12:46:29;102845.78;;;9.22;87.52
72086;BME280;64750;52.134;5.424;2023-02-03T12:49:20;102847.63;;;9.18;87.86
72086;BME280;64750;52.134;5.424;2023-02-03T12:51:56;102850.31;;;9.15;88.35
72086;BME280;64750;52.134;5.424;2023-02-03T12:54:33;102862.50;;;9.16;88.67
72086;BME280;64750;52.134;5.424;2023-02-03T12:57:21;102868.69;;;9.14;88.68
72086;BME280;64750;52.134;5.424;2023-02-03T13:00:02;102867.88;;;9.12;88.58
72086;BME280;64750;52.134;5.424;2023-02-03T13:02:36;102874.88;;;9.11;88.44
72086;BME280;64750;52.134;5.424;2023-02-03T13:05:18;102874.88;;;9.11;88.34
72086;BME280;64750;52.134;5.424;2023-02-03T13:07:52;102876.63;;;9.11;88.56
72086;BME280;64750;52.134;5.424;2023-02-03T13:10:30;102878.34;;;9.13;88.31
72086;BME280;64750;52.134;5.424;2023-02-03T13:13:00;102879.19;;;9.14;88.17
72086;BME280;64750;52.134;5.424;2023-02-03T13:15:38;102874.78;;;9.16;88.09
72086;BME280;64750;52.134;5.424;2023-02-03T13:18:20;102873.00;;;9.16;88.16
72086;BME280;64750;52.134;5.424;2023-02-03T13:20:52;102883.50;;;9.18;87.62
72086;BME280;64750;52.134;5.424;2023-02-03T13:23:20;102872.97;;;9.19;87.42
72086;BME280;64750;52.134;5.424;2023-02-03T13:28:48;102879.94;;;9.21;86.60
72086;BME280;64750;52.134;5.424;2023-02-03T13:36:42;102875.50;;;9.23;85.75
72086;BME280;64750;52.134;5.424;2023-02-03T13:39:35;102879.00;;;9.23;85.51
72086;BME280;64750;52.134;5.424;2023-02-03T13:42:21;102877.28;;;9.22;84.50
72086;BME280;64750;52.134;5.424;2023-02-03T13:44:54;102864.13;;;9.24;83.71
72086;BME280;64750;52.134;5.424;2023-02-03T13:47:27;102874.63;;;9.24;83.57
72086;BME280;64750;52.134;5.424;2023-02-03T13:49:58;102875.50;;;9.24;83.38
72086;BME280;64750;52.134;5.424;2023-02-03T13:52:30;102886.00;;;9.24;83.39
72086;BME280;64750;52.134;5.424;2023-02-03T13:54:59;102892.09;;;9.25;83.11
72086;BME280;64750;52.134;5.424;2023-02-03T13:57:32;102874.66;;;9.22;82.14
72086;BME280;64750;52.134;5.424;2023-02-03T14:00:56;102878.13;;;9.23;82.07
72086;BME280;64750;52.134;5.424;2023-02-03T14:03:18;102869.41;;;9.22;81.83
72086;BME280;64750;52.134;5.424;2023-02-03T14:05:46;102856.31;;;9.21;81.17
72086;BME280;64750;52.134;5.424;2023-02-03T14:16:34;102890.44;;;9.21;80.28
72086;BME280;64750;52.134;5.424;2023-02-03T14:19:01;102900.09;;;9.18;80.11
72086;BME280;64750;52.134;5.424;2023-02-03T14:21:37;102907.97;;;9.18;80.16
72086;BME280;64750;52.134;5.424;2023-02-03T14:24:07;102904.50;;;9.16;78.91
72086;BME280;64750;52.134;5.424;2023-02-03T14:26:40;102910.63;;;9.17;78.28
72086;BME280;64750;52.134;5.424;2023-02-03T14:29:22;102909.75;;;9.16;79.08
72086;BME280;64750;52.134;5.424;2023-02-03T14:31:56;102915.91;;;9.15;78.61
72086;BME280;64750;52.134;5.424;2023-02-03T14:34:29;102921.16;;;9.15;79.11
72086;BME280;64750;52.134;5.424;2023-02-03T14:37:08;102937.78;;;9.14;78.76
72086;BME280;64750;52.134;5.424;2023-02-03T14:39:45;102931.69;;;9.12;78.33
72086;BME280;64750;52.134;5.424;2023-02-03T14:45:06;102932.59;;;9.11;78.45
72086;BME280;64750;52.134;5.424;2023-02-03T14:53:34;102944.00;;;9.09;78.55
72086;BME280;64750;52.134;5.424;2023-02-03T14:56:11;102937.94;;;9.07;77.76
72086;BME280;64750;52.134;5.424;2023-02-03T14:59:08;102940.56;;;9.07;78.20
72086;BME280;64750;52.134;5.424;2023-02-03T15:06:42;102936.25;;;9.04;77.77
72086;BME280;64750;52.134;5.424;2023-02-03T15:09:30;102943.25;;;9.02;77.58
72086;BME280;64750;52.134;5.424;2023-02-03T15:11:58;102940.66;;;9.02;77.27
72086;BME280;64750;52.134;5.424;2023-02-03T15:14:29;102940.66;;;9.02;77.20
72086;BME280;64750;52.134;5.424;2023-02-03T15:17:03;102932.81;;;9.00;77.18
72086;BME280;64750;52.134;5.424;2023-02-03T15:19:40;102931.13;;;8.98;76.26